sensor_id;sensor_type;location;lat;lon;timestamp;P1;durP1;ratioP1;P2;durP2;ratioP2
48623;SDS011;34422;45.802;16.114;2023-09-19T00:00:26;16.02;;;6.40;;
48623;SDS011;34422;45.802;16.114;2023-09-19T00:02:57;14.43;;;6.60;;
48623;SDS011;34422;45.802;16.114;2023-09-19T00:05:26;16.00;;;6.72;;
48623;SDS011;34422;45.802;16.114;2023-09-19T00:07:57;17.02;;;7.60;;
48623;SDS011;34422;45.802;16.114;2023-09-19T00:10:27;15.80;;;7.10;;
48623;SDS011;34422;45.802;16.114;2023-09-19T00:12:57;16.05;;;6.35;;
48623;SDS011;34422;45.802;16.114;2023-09-19T00:15:35;13.23;;;6.38;;
48623;SDS011;34422;45.802;16.114;2023-09-19T00:18:04;12.55;;;6.72;;
48623;SDS011;34422;45.802;16.114;2023-09-19T00:20:35;13.38;;;6.90;;
48623;SDS011;34422;45.802;16.114;2023-09-19T00:23:02;15.87;;;6.43;;
48623;SDS011;34422;45.802;16.114;2023-09-19T00:25:30;18.75;;;7.53;;
48623;SDS011;34422;45.802;16.114;2023-09-19T00:27:58;15.88;;;6.32;;
48623;SDS011;34422;45.802;16.114;2023-09-19T00:30:25;13.32;;;6.22;;
48623;SDS011;34422;45.802;16.114;2023-09-19T00:32:52;14.88;;;6.60;;
48623;SDS011;34422;45.802;16.114;2023-09-19T00:35:21;12.67;;;5.80;;
48623;SDS011;34422;45.802;16.114;2023-09-19T00:37:51;14.63;;;6.70;;
48623;SDS011;34422;45.802;16.114;2023-09-19T00:40:19;15.18;;;6.38;;
48623;SDS011;34422;45.802;16.114;2023-09-19T00:42:46;11.13;;;6.22;;
48623;SDS011;34422;45.802;16.114;2023-09-19T00:45:14;11.90;;;6.68;;
48623;SDS011;34422;45.802;16.114;2023-09-19T00:47:47;19.15;;;7.30;;
48623;SDS011;34422;45.802;16.114;2023-09-19T00:50:18;15.85;;;6.88;;
48623;SDS011;34422;45.802;16.114;2023-09-19T00:52:48;16.20;;;6.82;;
48623;SDS011;34422;45.802;16.114;2023-09-19T00:55:16;14.55;;;7.32;;
48623;SDS011;34422;45.802;16.114;2023-09-19T00:57:46;15.17;;;7.20;;
48623;SDS011;34422;45.802;16.114;2023-09-19T01:00:16;13.10;;;7.28;;
48623;SDS011;34422;45.802;16.114;2023-09-19T01:02:46;15.68;;;7.80;;
48623;SDS011;34422;45.802;16.114;2023-09-19T01:05:13;12.80;;;6.95;;
48623;SDS011;34422;45.802;16.114;2023-09-19T01:07:40;14.13;;;6.60;;
48623;SDS011;34422;45.802;16.114;2023-09-19T01:10:11;18.55;;;7.60;;
48623;SDS011;34422;45.802;16.114;2023-09-19T01:15:38;23.20;;;9.10;;
48623;SDS011;34422;45.802;16.114;2023-09-19T01:18:19;18.73;;;7.30;;
48623;SDS011;34422;45.802;16.114;2023-09-19T01:21:05;20.65;;;8.40;;
48623;SDS011;34422;45.802;16.114;2023-09-19T01:32:03;16.30;;;7.03;;
48623;SDS011;34422;45.802;16.114;2023-09-19T01:34:47;16.75;;;7.00;;
48623;SDS011;34422;45.802;16.114;2023-09-19T01:37:19;10.82;;;6.53;;
48623;SDS011;34422;45.802;16.114;2023-09-19T01:39:57;13.35;;;6.97;;
48623;SDS011;34422;45.802;16.114;2023-09-19T01:51:34;14.80;;;7.25;;
48623;SDS011;34422;45.802;16.114;2023-09-19T01:54:26;13.90;;;6.28;;
48623;SDS011;34422;45.802;16.114;2023-09-19T01:59:35;12.32;;;6.55;;
48623;SDS011;34422;45.802;16.114;2023-09-19T02:02:07;14.30;;;7.00;;
48623;SDS011;34422;45.802;16.114;2023-09-19T02:04:36;17.30;;;7.70;;
48623;SDS011;34422;45.802;16.114;2023-09-19T02:07:03;13.60;;;6.80;;
48623;SDS011;34422;45.802;16.114;2023-09-19T02:09:32;10.65;;;6.45;;
48623;SDS011;34422;45.802;16.114;2023-09-19T02:12:01;13.45;;;7.20;;
48623;SDS011;34422;45.802;16.114;2023-09-19T02:14:30;13.18;;;6.95;;
48623;SDS011;34422;45.802;16.114;2023-09-19T02:16:57;12.40;;;7.15;;
48623;SDS011;34422;45.802;16.114;2023-09-19T02:19:24;11.98;;;7.70;;
48623;SDS011;34422;45.802;16.114;2023-09-19T02:21:51;12.45;;;7.03;;
48623;SDS011;34422;45.802;16.114;2023-09-19T02:24:19;13.52;;;7.07;;
48623;SDS011;34422;45.802;16.114;2023-09-19T02:26:45;11.07;;;7.05;;
48623;SDS011;34422;45.802;16.114;2023-09-19T02:29:13;14.23;;;7.32;;
48623;SDS011;34422;45.802;16.114;2023-09-19T02:31:40;11.50;;;7.25;;
48623;SDS011;34422;45.802;16.114;2023-09-19T02:34:07;11.75;;;6.55;;
48623;SDS011;34422;45.802;16.114;2023-09-19T02:36:35;16.73;;;7.00;;
48623;SDS011;34422;45.802;16.114;2023-09-19T02:39:03;12.45;;;7.00;;
48623;SDS011;34422;45.802;16.114;2023-09-19T02:41:31;12.45;;;7.18;;
48623;SDS011;34422;45.802;16.114;2023-09-19T02:43:59;15.77;;;6.95;;
48623;SDS011;34422;45.802;16.114;2023-09-19T02:46:26;13.60;;;6.80;;
48623;SDS011;34422;45.802;16.114;2023-09-19T02:48:53;10.75;;;6.90;;
48623;SDS011;34422;45.802;16.114;2023-09-19T02:51:21;13.90;;;6.75;;
48623;SDS011;34422;45.802;16.114;2023-09-19T02:53:48;14.02;;;6.57;;
48623;SDS011;34422;45.802;16.114;2023-09-19T02:56:15;13.20;;;6.88;;
48623;SDS011;34422;45.802;16.114;2023-09-19T02:58:42;13.88;;;6.65;;
48623;SDS011;34422;45.802;16.114;2023-09-19T03:01:09;14.80;;;6.93;;
48623;SDS011;34422;45.802;16.114;2023-09-19T03:03:39;12.38;;;6.72;;
48623;SDS011;34422;45.802;16.114;2023-09-19T03:06:07;11.80;;;6.72;;
48623;SDS011;34422;45.802;16.114;2023-09-19T03:08:35;15.18;;;7.05;;
48623;SDS011;34422;45.802;16.114;2023-09-19T03:11:03;16.17;;;7.38;;
48623;SDS011;34422;45.802;16.114;2023-09-19T03:13:30;12.85;;;7.18;;
48623;SDS011;34422;45.802;16.114;2023-09-19T03:15:57;14.68;;;6.50;;
48623;SDS011;34422;45.802;16.114;2023-09-19T03:18:24;11.57;;;6.20;;
48623;SDS011;34422;45.802;16.114;2023-09-19T03:20:53;15.55;;;7.35;;
48623;SDS011;34422;45.802;16.114;2023-09-19T03:23:21;12.00;;;7.05;;
48623;SDS011;34422;45.802;16.114;2023-09-19T03:25:48;16.17;;;7.40;;
48623;SDS011;34422;45.802;16.114;2023-09-19T03:28:16;19.65;;;7.60;;
48623;SDS011;34422;45.802;16.114;2023-09-19T03:30:44;20.15;;;8.02;;
48623;SDS011;34422;45.802;16.114;2023-09-19T03:33:11;15.00;;;7.13;;
48623;SDS011;34422;45.802;16.114;2023-09-19T03:35:39;15.82;;;8.02;;
48623;SDS011;34422;45.802;16.114;2023-09-19T03:38:06;13.43;;;7.03;;
48623;SDS011;34422;45.802;16.114;2023-09-19T03:40:33;11.70;;;7.28;;
48623;SDS011;34422;45.802;16.114;2023-09-19T03:43:02;17.92;;;8.13;;
48623;SDS011;34422;45.802;16.114;2023-09-19T03:45:29;16.10;;;7.55;;
48623;SDS011;34422;45.802;16.114;2023-09-19T03:47:56;16.38;;;7.55;;
48623;SDS011;34422;45.802;16.114;2023-09-19T03:50:23;15.73;;;7.43;;
48623;SDS011;34422;45.802;16.114;2023-09-19T03:52:50;14.60;;;7.03;;
48623;SDS011;34422;45.802;16.114;2023-09-19T03:55:17;15.77;;;7.97;;
48623;SDS011;34422;45.802;16.114;2023-09-19T03:57:47;16.83;;;7.22;;
48623;SDS011;34422;45.802;16.114;2023-09-19T04:00:15;17.15;;;7.70;;
48623;SDS011;34422;45.802;16.114;2023-09-19T04:02:44;17.02;;;7.95;;
48623;SDS011;34422;45.802;16.114;2023-09-19T04:05:12;19.20;;;8.40;;
48623;SDS011;34422;45.802;16.114;2023-09-19T04:07:39;17.08;;;8.15;;
48623;SDS011;34422;45.802;16.114;2023-09-19T04:10:06;16.35;;;8.68;;
48623;SDS011;34422;45.802;16.114;2023-09-19T04:12:35;17.65;;;8.48;;
48623;SDS011;34422;45.802;16.114;2023-09-19T04:15:02;20.00;;;7.90;;
48623;SDS011;34422;45.802;16.114;2023-09-19T04:17:29;15.55;;;8.05;;
48623;SDS011;34422;45.802;16.114;2023-09-19T04:19:56;15.75;;;7.50;;
48623;SDS011;34422;45.802;16.114;2023-09-19T04:22:23;12.95;;;7.20;;
48623;SDS011;34422;45.802;16.114;2023-09-19T04:24:50;16.70;;;8.05;;
48623;SDS011;34422;45.802;16.114;2023-09-19T04:27:17;14.45;;;8.63;;
48623;SDS011;34422;45.802;16.114;2023-09-19T04:29:45;14.95;;;8.27;;
48623;SDS011;34422;45.802;16.114;2023-09-19T04:32:11;17.27;;;8.95;;
48623;SDS011;34422;45.802;16.114;2023-09-19T04:34:39;19.23;;;8.57;;
48623;SDS011;34422;45.802;16.114;2023-09-19T04:37:06;14.25;;;8.35;;
48623;SDS011;34422;45.802;16.114;2023-09-19T04:39:33;16.20;;;8.70;;
48623;SDS011;34422;45.802;16.114;2023-09-19T04:42:00;16.05;;;8.40;;
48623;SDS011;34422;45.802;16.114;2023-09-19T04:44:27;19.42;;;8.85;;
48623;SDS011;34422;45.802;16.114;2023-09-19T04:46:54;17.00;;;8.95;;
48623;SDS011;34422;45.802;16.114;2023-09-19T04:49:21;14.70;;;8.73;;
48623;SDS011;34422;45.802;16.114;2023-09-19T04:51:48;16.95;;;8.38;;
48623;SDS011;34422;45.802;16.114;2023-09-19T04:54:15;17.42;;;8.77;;
48623;SDS011;34422;45.802;16.114;2023-09-19T04:56:42;15.88;;;8.45;;
48623;SDS011;34422;45.802;16.114;2023-09-19T04:59:09;13.40;;;7.57;;
48623;SDS011;34422;45.802;16.114;2023-09-19T05:01:37;11.32;;;7.78;;
48623;SDS011;34422;45.802;16.114;2023-09-19T05:04:04;14.88;;;8.63;;
48623;SDS011;34422;45.802;16.114;2023-09-19T05:06:31;17.23;;;8.48;;
48623;SDS011;34422;45.802;16.114;2023-09-19T05:09:01;15.35;;;8.10;;
48623;SDS011;34422;45.802;16.114;2023-09-19T05:11:31;15.43;;;7.97;;
48623;SDS011;34422;45.802;16.114;2023-09-19T05:13:58;12.35;;;8.25;;
48623;SDS011;34422;45.802;16.114;2023-09-19T05:16:28;16.40;;;8.68;;
48623;SDS011;34422;45.802;16.114;2023-09-19T05:18:56;20.27;;;9.90;;
48623;SDS011;34422;45.802;16.114;2023-09-19T05:21:22;24.23;;;10.95;;
48623;SDS011;34422;45.802;16.114;2023-09-19T05:23:51;34.03;;;11.48;;
48623;SDS011;34422;45.802;16.114;2023-09-19T05:26:18;28.48;;;11.50;;
48623;SDS011;34422;45.802;16.114;2023-09-19T05:28:46;20.38;;;9.75;;
48623;SDS011;34422;45.802;16.114;2023-09-19T05:31:14;20.35;;;8.07;;
48623;SDS011;34422;45.802;16.114;2023-09-19T05:33:42;17.00;;;8.80;;
48623;SDS011;34422;45.802;16.114;2023-09-19T05:36:09;18.17;;;8.77;;
48623;SDS011;34422;45.802;16.114;2023-09-19T05:38:38;14.35;;;8.02;;
48623;SDS011;34422;45.802;16.114;2023-09-19T05:41:07;18.35;;;8.57;;
48623;SDS011;34422;45.802;16.114;2023-09-19T05:43:36;19.13;;;9.02;;
48623;SDS011;34422;45.802;16.114;2023-09-19T05:46:03;19.67;;;9.00;;
48623;SDS011;34422;45.802;16.114;2023-09-19T05:48:30;23.00;;;8.60;;
48623;SDS011;34422;45.802;16.114;2023-09-19T05:50:57;15.52;;;8.25;;
48623;SDS011;34422;45.802;16.114;2023-09-19T05:53:24;16.45;;;9.05;;
48623;SDS011;34422;45.802;16.114;2023-09-19T05:55:50;14.13;;;8.25;;
48623;SDS011;34422;45.802;16.114;2023-09-19T05:58:19;14.07;;;7.93;;
48623;SDS011;34422;45.802;16.114;2023-09-19T06:00:46;18.20;;;8.02;;
48623;SDS011;34422;45.802;16.114;2023-09-19T06:03:15;20.75;;;8.85;;
48623;SDS011;34422;45.802;16.114;2023-09-19T06:05:44;32.28;;;9.02;;
48623;SDS011;34422;45.802;16.114;2023-09-19T06:08:13;18.90;;;8.18;;
48623;SDS011;34422;45.802;16.114;2023-09-19T06:10:41;18.02;;;6.72;;
48623;SDS011;34422;45.802;16.114;2023-09-19T06:13:08;17.15;;;6.78;;
48623;SDS011;34422;45.802;16.114;2023-09-19T06:15:37;13.82;;;6.03;;
48623;SDS011;34422;45.802;16.114;2023-09-19T06:18:04;21.08;;;5.95;;
48623;SDS011;34422;45.802;16.114;2023-09-19T06:20:31;10.40;;;4.65;;
48623;SDS011;34422;45.802;16.114;2023-09-19T06:22:59;9.45;;;4.78;;
48623;SDS011;34422;45.802;16.114;2023-09-19T06:25:32;8.63;;;4.43;;
48623;SDS011;34422;45.802;16.114;2023-09-19T06:28:02;12.60;;;5.25;;
48623;SDS011;34422;45.802;16.114;2023-09-19T06:30:31;6.90;;;3.53;;
48623;SDS011;34422;45.802;16.114;2023-09-19T06:32:58;15.18;;;4.13;;
48623;SDS011;34422;45.802;16.114;2023-09-19T06:35:27;13.38;;;4.50;;
48623;SDS011;34422;45.802;16.114;2023-09-19T06:37:55;7.72;;;3.33;;
48623;SDS011;34422;45.802;16.114;2023-09-19T06:40:24;7.30;;;3.38;;
48623;SDS011;34422;45.802;16.114;2023-09-19T06:42:51;7.88;;;3.38;;
48623;SDS011;34422;45.802;16.114;2023-09-19T06:45:19;9.52;;;3.30;;
48623;SDS011;34422;45.802;16.114;2023-09-19T06:47:48;9.65;;;3.20;;
48623;SDS011;34422;45.802;16.114;2023-09-19T06:50:16;17.05;;;3.83;;
48623;SDS011;34422;45.802;16.114;2023-09-19T06:52:46;13.20;;;3.17;;
48623;SDS011;34422;45.802;16.114;2023-09-19T06:55:18;8.30;;;3.38;;
48623;SDS011;34422;45.802;16.114;2023-09-19T06:57:46;9.50;;;3.40;;
48623;SDS011;34422;45.802;16.114;2023-09-19T07:00:13;6.20;;;2.90;;
48623;SDS011;34422;45.802;16.114;2023-09-19T07:03:00;8.40;;;3.28;;
48623;SDS011;34422;45.802;16.114;2023-09-19T07:05:30;8.40;;;3.35;;
48623;SDS011;34422;45.802;16.114;2023-09-19T07:08:01;9.35;;;3.20;;
48623;SDS011;34422;45.802;16.114;2023-09-19T07:10:28;8.10;;;2.78;;
48623;SDS011;34422;45.802;16.114;2023-09-19T07:12:56;7.90;;;3.28;;
48623;SDS011;34422;45.802;16.114;2023-09-19T07:15:33;11.55;;;3.90;;
48623;SDS011;34422;45.802;16.114;2023-09-19T07:18:02;10.50;;;3.20;;
48623;SDS011;34422;45.802;16.114;2023-09-19T07:28:38;6.43;;;2.90;;
48623;SDS011;34422;45.802;16.114;2023-09-19T07:31:05;7.60;;;2.42;;
48623;SDS011;34422;45.802;16.114;2023-09-19T07:33:33;13.10;;;3.80;;
48623;SDS011;34422;45.802;16.114;2023-09-19T07:36:00;8.82;;;3.33;;
48623;SDS011;34422;45.802;16.114;2023-09-19T07:38:27;9.15;;;4.07;;
48623;SDS011;34422;45.802;16.114;2023-09-19T07:40:59;9.25;;;3.55;;
48623;SDS011;34422;45.802;16.114;2023-09-19T07:43:28;8.60;;;3.03;;
48623;SDS011;34422;45.802;16.114;2023-09-19T07:45:56;7.18;;;2.85;;
48623;SDS011;34422;45.802;16.114;2023-09-19T07:48:24;7.72;;;2.97;;
48623;SDS011;34422;45.802;16.114;2023-09-19T07:50:50;14.02;;;3.53;;
48623;SDS011;34422;45.802;16.114;2023-09-19T07:53:17;9.70;;;3.55;;
48623;SDS011;34422;45.802;16.114;2023-09-19T07:55:44;6.65;;;2.65;;
48623;SDS011;34422;45.802;16.114;2023-09-19T07:58:14;10.43;;;2.90;;
48623;SDS011;34422;45.802;16.114;2023-09-19T08:00:42;5.85;;;2.50;;
48623;SDS011;34422;45.802;16.114;2023-09-19T08:03:09;7.07;;;2.60;;
48623;SDS011;34422;45.802;16.114;2023-09-19T08:05:58;6.25;;;2.67;;
48623;SDS011;34422;45.802;16.114;2023-09-19T08:08:45;7.22;;;2.78;;
48623;SDS011;34422;45.802;16.114;2023-09-19T08:11:14;8.68;;;2.50;;
48623;SDS011;34422;45.802;16.114;2023-09-19T08:13:47;6.72;;;2.90;;
48623;SDS011;34422;45.802;16.114;2023-09-19T08:16:15;8.13;;;2.67;;
48623;SDS011;34422;45.802;16.114;2023-09-19T08:18:47;6.78;;;3.10;;
48623;SDS011;34422;45.802;16.114;2023-09-19T08:21:14;10.60;;;2.85;;
48623;SDS011;34422;45.802;16.114;2023-09-19T08:23:43;7.57;;;3.40;;
48623;SDS011;34422;45.802;16.114;2023-09-19T08:26:12;7.13;;;2.70;;
48623;SDS011;34422;45.802;16.114;2023-09-19T08:28:39;4.20;;;1.80;;
48623;SDS011;34422;45.802;16.114;2023-09-19T08:31:08;6.47;;;2.35;;
48623;SDS011;34422;45.802;16.114;2023-09-19T08:33:36;6.13;;;2.42;;
48623;SDS011;34422;45.802;16.114;2023-09-19T08:36:04;8.90;;;2.97;;
48623;SDS011;34422;45.802;16.114;2023-09-19T08:38:31;5.55;;;2.47;;
48623;SDS011;34422;45.802;16.114;2023-09-19T08:41:04;7.38;;;2.80;;
48623;SDS011;34422;45.802;16.114;2023-09-19T08:43:32;8.40;;;2.70;;
48623;SDS011;34422;45.802;16.114;2023-09-19T08:46:10;9.63;;;2.47;;
48623;SDS011;34422;45.802;16.114;2023-09-19T08:48:53;10.48;;;3.22;;
48623;SDS011;34422;45.802;16.114;2023-09-19T08:51:44;7.82;;;2.42;;
48623;SDS011;34422;45.802;16.114;2023-09-19T08:54:24;9.05;;;3.00;;
48623;SDS011;34422;45.802;16.114;2023-09-19T08:56:56;6.88;;;2.67;;
48623;SDS011;34422;45.802;16.114;2023-09-19T08:59:29;5.63;;;2.60;;
48623;SDS011;34422;45.802;16.114;2023-09-19T09:01:56;8.40;;;2.85;;
48623;SDS011;34422;45.802;16.114;2023-09-19T09:04:24;5.32;;;2.53;;
48623;SDS011;34422;45.802;16.114;2023-09-19T09:06:52;7.38;;;2.35;;
48623;SDS011;34422;45.802;16.114;2023-09-19T09:09:21;6.55;;;2.45;;
48623;SDS011;34422;45.802;16.114;2023-09-19T09:11:48;8.48;;;2.72;;
48623;SDS011;34422;45.802;16.114;2023-09-19T09:14:18;8.00;;;2.80;;
48623;SDS011;34422;45.802;16.114;2023-09-19T09:16:46;7.93;;;2.78;;
48623;SDS011;34422;45.802;16.114;2023-09-19T09:19:15;6.63;;;2.65;;
48623;SDS011;34422;45.802;16.114;2023-09-19T09:21:51;6.80;;;2.78;;
48623;SDS011;34422;45.802;16.114;2023-09-19T09:24:27;7.82;;;2.65;;
48623;SDS011;34422;45.802;16.114;2023-09-19T09:26:56;7.60;;;2.80;;
48623;SDS011;34422;45.802;16.114;2023-09-19T09:29:42;8.68;;;3.63;;
48623;SDS011;34422;45.802;16.114;2023-09-19T09:32:23;12.30;;;3.33;;
48623;SDS011;34422;45.802;16.114;2023-09-19T09:34:57;8.98;;;3.85;;
48623;SDS011;34422;45.802;16.114;2023-09-19T09:37:26;9.75;;;3.80;;
48623;SDS011;34422;45.802;16.114;2023-09-19T09:40:02;8.85;;;3.40;;
48623;SDS011;34422;45.802;16.114;2023-09-19T09:42:41;15.45;;;3.17;;
48623;SDS011;34422;45.802;16.114;2023-09-19T09:45:13;6.80;;;2.58;;
48623;SDS011;34422;45.802;16.114;2023-09-19T09:47:48;6.55;;;3.00;;
48623;SDS011;34422;45.802;16.114;2023-09-19T09:50:28;7.95;;;2.58;;
48623;SDS011;34422;45.802;16.114;2023-09-19T09:53:05;5.60;;;2.50;;
48623;SDS011;34422;45.802;16.114;2023-09-19T09:56:05;7.60;;;3.20;;
48623;SDS011;34422;45.802;16.114;2023-09-19T09:58:33;8.90;;;3.22;;
48623;SDS011;34422;45.802;16.114;2023-09-19T10:01:14;6.88;;;2.55;;
48623;SDS011;34422;45.802;16.114;2023-09-19T10:03:44;7.55;;;2.70;;
48623;SDS011;34422;45.802;16.114;2023-09-19T10:06:15;5.43;;;2.40;;
48623;SDS011;34422;45.802;16.114;2023-09-19T10:09:02;6.07;;;2.75;;
48623;SDS011;34422;45.802;16.114;2023-09-19T10:11:39;7.13;;;2.20;;
48623;SDS011;34422;45.802;16.114;2023-09-19T10:14:10;5.43;;;2.55;;
48623;SDS011;34422;45.802;16.114;2023-09-19T10:16:56;11.85;;;4.70;;
48623;SDS011;34422;45.802;16.114;2023-09-19T10:19:33;6.95;;;3.13;;
48623;SDS011;34422;45.802;16.114;2023-09-19T10:22:04;6.85;;;2.85;;
48623;SDS011;34422;45.802;16.114;2023-09-19T10:24:35;6.40;;;2.50;;
48623;SDS011;34422;45.802;16.114;2023-09-19T10:27:04;5.55;;;2.65;;
48623;SDS011;34422;45.802;16.114;2023-09-19T10:29:35;4.93;;;2.58;;
48623;SDS011;34422;45.802;16.114;2023-09-19T10:34:36;6.88;;;2.92;;
48623;SDS011;34422;45.802;16.114;2023-09-19T10:37:04;6.55;;;2.83;;
48623;SDS011;34422;45.802;16.114;2023-09-19T10:39:32;6.68;;;2.70;;
48623;SDS011;34422;45.802;16.114;2023-09-19T10:42:01;11.43;;;3.08;;
48623;SDS011;34422;45.802;16.114;2023-09-19T10:44:32;5.00;;;2.90;;
48623;SDS011;34422;45.802;16.114;2023-09-19T10:46:59;7.55;;;3.00;;
48623;SDS011;34422;45.802;16.114;2023-09-19T10:49:26;7.20;;;2.55;;
48623;SDS011;34422;45.802;16.114;2023-09-19T10:51:54;7.60;;;2.70;;
48623;SDS011;34422;45.802;16.114;2023-09-19T10:54:26;5.78;;;2.53;;
48623;SDS011;34422;45.802;16.114;2023-09-19T10:56:58;6.15;;;3.88;;
48623;SDS011;34422;45.802;16.114;2023-09-19T10:59:27;8.13;;;3.40;;
48623;SDS011;34422;45.802;16.114;2023-09-19T11:02:15;6.20;;;2.75;;
48623;SDS011;34422;45.802;16.114;2023-09-19T11:04:44;6.53;;;2.55;;
48623;SDS011;34422;45.802;16.114;2023-09-19T11:09:54;8.00;;;2.78;;
48623;SDS011;34422;45.802;16.114;2023-09-19T11:16:02;7.75;;;3.05;;
48623;SDS011;34422;45.802;16.114;2023-09-19T11:26:48;5.93;;;2.95;;
48623;SDS011;34422;45.802;16.114;2023-09-19T11:29:24;6.38;;;2.80;;
48623;SDS011;34422;45.802;16.114;2023-09-19T11:31:52;6.60;;;2.20;;
48623;SDS011;34422;45.802;16.114;2023-09-19T11:34:44;5.75;;;2.50;;
48623;SDS011;34422;45.802;16.114;2023-09-19T11:48:13;8.52;;;2.80;;
48623;SDS011;34422;45.802;16.114;2023-09-19T11:50:42;8.85;;;5.03;;
48623;SDS011;34422;45.802;16.114;2023-09-19T11:53:13;5.55;;;2.58;;
48623;SDS011;34422;45.802;16.114;2023-09-19T11:55:43;3.70;;;1.65;;
48623;SDS011;34422;45.802;16.114;2023-09-19T11:58:11;4.68;;;1.73;;
48623;SDS011;34422;45.802;16.114;2023-09-19T12:00:41;6.63;;;2.25;;
48623;SDS011;34422;45.802;16.114;2023-09-19T12:03:11;5.18;;;1.73;;
48623;SDS011;34422;45.802;16.114;2023-09-19T12:05:40;5.43;;;2.58;;
48623;SDS011;34422;45.802;16.114;2023-09-19T12:08:07;6.82;;;2.85;;
48623;SDS011;34422;45.802;16.114;2023-09-19T12:10:47;4.20;;;1.88;;
48623;SDS011;34422;45.802;16.114;2023-09-19T12:13:16;5.47;;;1.88;;
48623;SDS011;34422;45.802;16.114;2023-09-19T12:15:45;5.47;;;1.90;;
48623;SDS011;34422;45.802;16.114;2023-09-19T12:18:29;6.85;;;1.80;;
48623;SDS011;34422;45.802;16.114;2023-09-19T12:20:57;4.22;;;1.33;;
48623;SDS011;34422;45.802;16.114;2023-09-19T12:23:24;4.68;;;1.60;;
48623;SDS011;34422;45.802;16.114;2023-09-19T12:25:54;5.20;;;1.77;;
48623;SDS011;34422;45.802;16.114;2023-09-19T12:28:26;4.72;;;1.45;;
48623;SDS011;34422;45.802;16.114;2023-09-19T12:30:54;4.72;;;2.25;;
48623;SDS011;34422;45.802;16.114;2023-09-19T12:33:21;7.43;;;4.10;;
48623;SDS011;34422;45.802;16.114;2023-09-19T12:40:55;4.45;;;1.50;;
48623;SDS011;34422;45.802;16.114;2023-09-19T12:43:28;4.60;;;1.88;;
48623;SDS011;34422;45.802;16.114;2023-09-19T12:45:59;5.50;;;1.83;;
48623;SDS011;34422;45.802;16.114;2023-09-19T12:48:26;5.05;;;1.50;;
48623;SDS011;34422;45.802;16.114;2023-09-19T12:53:41;4.45;;;1.52;;
48623;SDS011;34422;45.802;16.114;2023-09-19T12:56:16;4.70;;;1.45;;
48623;SDS011;34422;45.802;16.114;2023-09-19T12:58:51;4.50;;;2.05;;
48623;SDS011;34422;45.802;16.114;2023-09-19T13:01:23;5.63;;;1.70;;
48623;SDS011;34422;45.802;16.114;2023-09-19T13:04:12;5.53;;;1.60;;
48623;SDS011;34422;45.802;16.114;2023-09-19T13:06:41;5.28;;;1.88;;
48623;SDS011;34422;45.802;16.114;2023-09-19T13:09:11;4.55;;;1.63;;
48623;SDS011;34422;45.802;16.114;2023-09-19T13:11:38;5.00;;;1.58;;
48623;SDS011;34422;45.802;16.114;2023-09-19T13:16:54;6.32;;;1.40;;
48623;SDS011;34422;45.802;16.114;2023-09-19T13:25:09;6.47;;;1.60;;
48623;SDS011;34422;45.802;16.114;2023-09-19T13:27:42;6.40;;;2.00;;
48623;SDS011;34422;45.802;16.114;2023-09-19T13:30:14;3.42;;;1.40;;
48623;SDS011;34422;45.802;16.114;2023-09-19T13:32:41;5.70;;;1.55;;
48623;SDS011;34422;45.802;16.114;2023-09-19T13:35:10;6.13;;;1.85;;
48623;SDS011;34422;45.802;16.114;2023-09-19T13:37:40;4.40;;;1.40;;
48623;SDS011;34422;45.802;16.114;2023-09-19T13:40:09;4.35;;;1.67;;
48623;SDS011;34422;45.802;16.114;2023-09-19T13:42:41;4.72;;;1.30;;
48623;SDS011;34422;45.802;16.114;2023-09-19T13:45:08;4.18;;;1.70;;
48623;SDS011;34422;45.802;16.114;2023-09-19T13:47:38;3.80;;;1.38;;
48623;SDS011;34422;45.802;16.114;2023-09-19T13:50:06;5.47;;;1.70;;
48623;SDS011;34422;45.802;16.114;2023-09-19T13:52:34;4.97;;;1.23;;
48623;SDS011;34422;45.802;16.114;2023-09-19T13:55:01;4.20;;;1.38;;
48623;SDS011;34422;45.802;16.114;2023-09-19T13:57:28;3.53;;;1.55;;
48623;SDS011;34422;45.802;16.114;2023-09-19T13:59:55;6.90;;;1.75;;
48623;SDS011;34422;45.802;16.114;2023-09-19T14:02:22;4.75;;;1.50;;
48623;SDS011;34422;45.802;16.114;2023-09-19T14:04:50;4.47;;;1.50;;
48623;SDS011;34422;45.802;16.114;2023-09-19T14:07:18;5.25;;;1.60;;
48623;SDS011;34422;45.802;16.114;2023-09-19T14:09:47;5.38;;;1.70;;
48623;SDS011;34422;45.802;16.114;2023-09-19T14:12:15;3.60;;;1.52;;
48623;SDS011;34422;45.802;16.114;2023-09-19T14:14:42;4.55;;;1.80;;
48623;SDS011;34422;45.802;16.114;2023-09-19T14:17:11;3.65;;;1.65;;
48623;SDS011;34422;45.802;16.114;2023-09-19T14:19:40;4.00;;;1.50;;
48623;SDS011;34422;45.802;16.114;2023-09-19T14:22:09;5.07;;;1.48;;
48623;SDS011;34422;45.802;16.114;2023-09-19T14:24:36;4.82;;;1.27;;
48623;SDS011;34422;45.802;16.114;2023-09-19T14:27:04;4.15;;;1.52;;
48623;SDS011;34422;45.802;16.114;2023-09-19T14:29:33;3.17;;;1.33;;
48623;SDS011;34422;45.802;16.114;2023-09-19T14:32:00;3.95;;;1.65;;
48623;SDS011;34422;45.802;16.114;2023-09-19T14:34:27;3.58;;;1.70;;
48623;SDS011;34422;45.802;16.114;2023-09-19T14:36:54;6.95;;;1.83;;
48623;SDS011;34422;45.802;16.114;2023-09-19T14:39:21;4.18;;;1.80;;
48623;SDS011;34422;45.802;16.114;2023-09-19T14:41:47;3.97;;;1.58;;
48623;SDS011;34422;45.802;16.114;2023-09-19T14:44:19;12.15;;;2.13;;
48623;SDS011;34422;45.802;16.114;2023-09-19T14:46:46;4.30;;;1.75;;
48623;SDS011;34422;45.802;16.114;2023-09-19T14:49:12;5.63;;;1.98;;
48623;SDS011;34422;45.802;16.114;2023-09-19T14:51:46;4.93;;;1.60;;
48623;SDS011;34422;45.802;16.114;2023-09-19T14:54:14;4.97;;;1.90;;
48623;SDS011;34422;45.802;16.114;2023-09-19T14:56:45;4.53;;;1.77;;
48623;SDS011;34422;45.802;16.114;2023-09-19T14:59:12;7.20;;;1.80;;
48623;SDS011;34422;45.802;16.114;2023-09-19T15:01:39;3.83;;;1.52;;
48623;SDS011;34422;45.802;16.114;2023-09-19T15:04:07;4.18;;;1.77;;
48623;SDS011;34422;45.802;16.114;2023-09-19T15:06:35;4.30;;;1.52;;
48623;SDS011;34422;45.802;16.114;2023-09-19T15:09:02;6.10;;;1.77;;
48623;SDS011;34422;45.802;16.114;2023-09-19T15:11:31;3.53;;;1.47;;
48623;SDS011;34422;45.802;16.114;2023-09-19T15:13:58;4.78;;;2.10;;
48623;SDS011;34422;45.802;16.114;2023-09-19T15:16:25;6.15;;;2.20;;
48623;SDS011;34422;45.802;16.114;2023-09-19T15:18:52;5.22;;;1.77;;
48623;SDS011;34422;45.802;16.114;2023-09-19T15:21:20;4.80;;;1.85;;
48623;SDS011;34422;45.802;16.114;2023-09-19T15:23:47;5.05;;;1.85;;
48623;SDS011;34422;45.802;16.114;2023-09-19T15:26:14;4.93;;;1.90;;
48623;SDS011;34422;45.802;16.114;2023-09-19T15:28:46;4.88;;;2.58;;
48623;SDS011;34422;45.802;16.114;2023-09-19T15:31:14;7.13;;;2.08;;
48623;SDS011;34422;45.802;16.114;2023-09-19T15:33:41;3.85;;;1.65;;
48623;SDS011;34422;45.802;16.114;2023-09-19T15:41:30;5.25;;;2.03;;
48623;SDS011;34422;45.802;16.114;2023-09-19T15:44:01;9.05;;;2.28;;
48623;SDS011;34422;45.802;16.114;2023-09-19T15:46:30;5.60;;;2.35;;
48623;SDS011;34422;45.802;16.114;2023-09-19T15:48:59;4.72;;;1.75;;
48623;SDS011;34422;45.802;16.114;2023-09-19T15:51:27;4.72;;;1.67;;
48623;SDS011;34422;45.802;16.114;2023-09-19T15:53:54;5.80;;;1.55;;
48623;SDS011;34422;45.802;16.114;2023-09-19T15:56:23;3.70;;;1.48;;
48623;SDS011;34422;45.802;16.114;2023-09-19T15:58:50;4.38;;;1.80;;
48623;SDS011;34422;45.802;16.114;2023-09-19T16:01:18;4.78;;;1.77;;
48623;SDS011;34422;45.802;16.114;2023-09-19T16:03:46;5.32;;;1.60;;